sensor_id;sensor_type;location;lat;lon;timestamp;P1;durP1;ratioP1;P2;durP2;ratioP2
4448;SDS011;2237;51.870;6.160;2023-09-30T00:00:55;15.38;;;2.95;;
4448;SDS011;2237;51.870;6.160;2023-09-30T00:03:21;12.55;;;2.88;;
4448;SDS011;2237;51.870;6.160;2023-09-30T00:05:48;10.35;;;2.55;;
4448;SDS011;2237;51.870;6.160;2023-09-30T00:08:15;9.13;;;2.90;;
4448;SDS011;2237;51.870;6.160;2023-09-30T00:10:41;10.75;;;2.42;;
4448;SDS011;2237;51.870;6.160;2023-09-30T00:13:07;8.50;;;2.72;;
4448;SDS011;2237;51.870;6.160;2023-09-30T00:15:34;12.18;;;2.30;;
4448;SDS011;2237;51.870;6.160;2023-09-30T00:18:01;9.25;;;2.40;;
4448;SDS011;2237;51.870;6.160;2023-09-30T00:20:28;10.57;;;2.65;;
4448;SDS011;2237;51.870;6.160;2023-09-30T00:22:54;9.00;;;2.80;;
4448;SDS011;2237;51.870;6.160;2023-09-30T00:25:21;8.70;;;2.60;;
4448;SDS011;2237;51.870;6.160;2023-09-30T00:27:48;9.65;;;2.22;;
4448;SDS011;2237;51.870;6.160;2023-09-30T00:30:14;10.82;;;3.15;;
4448;SDS011;2237;51.870;6.160;2023-09-30T00:32:41;16.35;;;3.47;;
4448;SDS011;2237;51.870;6.160;2023-09-30T00:35:07;12.98;;;3.15;;
4448;SDS011;2237;51.870;6.160;2023-09-30T00:37:37;9.07;;;3.00;;
4448;SDS011;2237;51.870;6.160;2023-09-30T00:40:05;11.35;;;2.78;;
4448;SDS011;2237;51.870;6.160;2023-09-30T00:42:32;16.13;;;3.15;;
4448;SDS011;2237;51.870;6.160;2023-09-30T00:44:58;10.35;;;2.97;;
4448;SDS011;2237;51.870;6.160;2023-09-30T00:47:25;11.27;;;3.30;;
4448;SDS011;2237;51.870;6.160;2023-09-30T00:49:52;14.15;;;2.97;;
4448;SDS011;2237;51.870;6.160;2023-09-30T00:52:19;11.23;;;3.38;;
4448;SDS011;2237;51.870;6.160;2023-09-30T00:54:46;8.40;;;2.83;;
4448;SDS011;2237;51.870;6.160;2023-09-30T00:57:14;10.98;;;3.15;;
4448;SDS011;2237;51.870;6.160;2023-09-30T00:59:41;12.02;;;3.65;;
4448;SDS011;2237;51.870;6.160;2023-09-30T01:02:07;12.90;;;3.05;;
4448;SDS011;2237;51.870;6.160;2023-09-30T01:04:34;12.80;;;3.80;;
4448;SDS011;2237;51.870;6.160;2023-09-30T01:07:01;11.65;;;3.85;;
4448;SDS011;2237;51.870;6.160;2023-09-30T01:09:27;13.20;;;3.67;;
4448;SDS011;2237;51.870;6.160;2023-09-30T01:11:54;13.10;;;4.10;;
4448;SDS011;2237;51.870;6.160;2023-09-30T01:14:27;12.80;;;3.88;;
4448;SDS011;2237;51.870;6.160;2023-09-30T01:16:55;13.50;;;4.15;;
4448;SDS011;2237;51.870;6.160;2023-09-30T01:19:22;16.00;;;3.20;;
4448;SDS011;2237;51.870;6.160;2023-09-30T01:21:55;18.85;;;4.25;;
4448;SDS011;2237;51.870;6.160;2023-09-30T01:24:28;12.82;;;4.03;;
4448;SDS011;2237;51.870;6.160;2023-09-30T01:26:56;13.82;;;3.70;;
4448;SDS011;2237;51.870;6.160;2023-09-30T01:29:23;9.00;;;3.70;;
4448;SDS011;2237;51.870;6.160;2023-09-30T01:31:51;13.45;;;3.47;;
4448;SDS011;2237;51.870;6.160;2023-09-30T01:34:18;7.80;;;3.28;;
4448;SDS011;2237;51.870;6.160;2023-09-30T01:36:45;12.65;;;4.03;;
4448;SDS011;2237;51.870;6.160;2023-09-30T01:39:11;14.30;;;4.30;;
4448;SDS011;2237;51.870;6.160;2023-09-30T01:41:38;11.82;;;4.35;;
4448;SDS011;2237;51.870;6.160;2023-09-30T01:44:05;14.32;;;4.00;;
4448;SDS011;2237;51.870;6.160;2023-09-30T01:46:32;12.88;;;4.45;;
4448;SDS011;2237;51.870;6.160;2023-09-30T01:48:59;13.35;;;4.20;;
4448;SDS011;2237;51.870;6.160;2023-09-30T01:51:26;12.73;;;3.90;;
4448;SDS011;2237;51.870;6.160;2023-09-30T01:53:54;13.07;;;4.43;;
4448;SDS011;2237;51.870;6.160;2023-09-30T01:56:21;14.98;;;4.85;;
4448;SDS011;2237;51.870;6.160;2023-09-30T01:58:48;9.48;;;4.20;;
4448;SDS011;2237;51.870;6.160;2023-09-30T02:01:14;17.27;;;4.30;;
4448;SDS011;2237;51.870;6.160;2023-09-30T02:03:41;14.48;;;4.38;;
4448;SDS011;2237;51.870;6.160;2023-09-30T02:06:08;15.85;;;4.70;;
4448;SDS011;2237;51.870;6.160;2023-09-30T02:08:34;14.65;;;5.13;;
4448;SDS011;2237;51.870;6.160;2023-09-30T02:11:02;13.52;;;4.43;;
4448;SDS011;2237;51.870;6.160;2023-09-30T02:13:32;11.10;;;4.38;;
4448;SDS011;2237;51.870;6.160;2023-09-30T02:16:01;12.32;;;5.00;;
4448;SDS011;2237;51.870;6.160;2023-09-30T02:18:27;14.13;;;4.88;;
4448;SDS011;2237;51.870;6.160;2023-09-30T02:20:54;14.45;;;4.95;;
4448;SDS011;2237;51.870;6.160;2023-09-30T02:23:20;16.33;;;5.20;;
4448;SDS011;2237;51.870;6.160;2023-09-30T02:25:47;11.65;;;4.72;;
4448;SDS011;2237;51.870;6.160;2023-09-30T02:28:13;12.20;;;4.63;;
4448;SDS011;2237;51.870;6.160;2023-09-30T02:30:40;14.45;;;5.88;;
4448;SDS011;2237;51.870;6.160;2023-09-30T02:33:06;15.95;;;5.38;;
4448;SDS011;2237;51.870;6.160;2023-09-30T02:35:33;15.25;;;4.80;;
4448;SDS011;2237;51.870;6.160;2023-09-30T02:37:59;10.15;;;5.10;;
4448;SDS011;2237;51.870;6.160;2023-09-30T02:40:26;17.75;;;5.45;;
4448;SDS011;2237;51.870;6.160;2023-09-30T02:42:53;13.63;;;5.03;;
4448;SDS011;2237;51.870;6.160;2023-09-30T02:45:20;13.35;;;5.28;;
4448;SDS011;2237;51.870;6.160;2023-09-30T02:47:47;12.93;;;5.20;;
4448;SDS011;2237;51.870;6.160;2023-09-30T02:50:13;18.58;;;5.45;;
4448;SDS011;2237;51.870;6.160;2023-09-30T02:52:40;19.52;;;6.20;;
4448;SDS011;2237;51.870;6.160;2023-09-30T02:55:10;17.20;;;5.25;;
4448;SDS011;2237;51.870;6.160;2023-09-30T02:57:37;13.43;;;5.10;;
4448;SDS011;2237;51.870;6.160;2023-09-30T03:00:06;13.30;;;5.63;;
4448;SDS011;2237;51.870;6.160;2023-09-30T03:02:59;12.80;;;5.68;;
4448;SDS011;2237;51.870;6.160;2023-09-30T03:05:27;14.85;;;5.80;;
4448;SDS011;2237;51.870;6.160;2023-09-30T03:07:56;14.65;;;5.53;;
4448;SDS011;2237;51.870;6.160;2023-09-30T03:10:23;15.30;;;5.55;;
4448;SDS011;2237;51.870;6.160;2023-09-30T03:12:53;11.73;;;5.10;;
4448;SDS011;2237;51.870;6.160;2023-09-30T03:15:20;12.63;;;5.55;;
4448;SDS011;2237;51.870;6.160;2023-09-30T03:17:47;15.38;;;5.53;;
4448;SDS011;2237;51.870;6.160;2023-09-30T03:20:18;14.02;;;5.88;;
4448;SDS011;2237;51.870;6.160;2023-09-30T03:22:46;12.15;;;5.38;;
4448;SDS011;2237;51.870;6.160;2023-09-30T03:25:14;17.23;;;6.25;;
4448;SDS011;2237;51.870;6.160;2023-09-30T03:27:44;12.05;;;5.50;;
4448;SDS011;2237;51.870;6.160;2023-09-30T03:30:13;16.73;;;6.00;;
4448;SDS011;2237;51.870;6.160;2023-09-30T03:32:41;12.93;;;5.70;;
4448;SDS011;2237;51.870;6.160;2023-09-30T03:35:09;17.23;;;5.65;;
4448;SDS011;2237;51.870;6.160;2023-09-30T03:37:37;13.73;;;5.75;;
4448;SDS011;2237;51.870;6.160;2023-09-30T03:40:03;13.85;;;5.88;;
4448;SDS011;2237;51.870;6.160;2023-09-30T03:42:39;12.90;;;5.35;;
4448;SDS011;2237;51.870;6.160;2023-09-30T03:45:09;19.03;;;6.03;;
4448;SDS011;2237;51.870;6.160;2023-09-30T03:47:37;15.77;;;6.00;;
4448;SDS011;2237;51.870;6.160;2023-09-30T03:50:04;14.65;;;5.57;;
4448;SDS011;2237;51.870;6.160;2023-09-30T03:52:33;14.02;;;5.90;;
4448;SDS011;2237;51.870;6.160;2023-09-30T03:55:00;14.18;;;5.60;;
4448;SDS011;2237;51.870;6.160;2023-09-30T03:57:31;18.42;;;6.00;;
4448;SDS011;2237;51.870;6.160;2023-09-30T04:00:00;14.32;;;5.72;;
4448;SDS011;2237;51.870;6.160;2023-09-30T04:02:27;13.38;;;6.45;;
4448;SDS011;2237;51.870;6.160;2023-09-30T04:04:53;13.93;;;6.32;;
4448;SDS011;2237;51.870;6.160;2023-09-30T04:07:22;12.10;;;5.80;;
4448;SDS011;2237;51.870;6.160;2023-09-30T04:09:54;12.43;;;5.80;;
4448;SDS011;2237;51.870;6.160;2023-09-30T04:12:21;12.88;;;5.55;;
4448;SDS011;2237;51.870;6.160;2023-09-30T04:14:50;17.08;;;6.30;;
4448;SDS011;2237;51.870;6.160;2023-09-30T04:17:16;20.23;;;6.75;;
4448;SDS011;2237;51.870;6.160;2023-09-30T04:19:43;10.35;;;5.57;;
4448;SDS011;2237;51.870;6.160;2023-09-30T04:22:09;13.70;;;6.43;;
4448;SDS011;2237;51.870;6.160;2023-09-30T04:24:36;16.60;;;6.35;;
4448;SDS011;2237;51.870;6.160;2023-09-30T04:27:02;13.63;;;6.43;;
4448;SDS011;2237;51.870;6.160;2023-09-30T04:29:32;13.55;;;5.75;;
4448;SDS011;2237;51.870;6.160;2023-09-30T04:31:58;13.05;;;6.32;;
4448;SDS011;2237;51.870;6.160;2023-09-30T04:34:25;13.25;;;6.28;;
4448;SDS011;2237;51.870;6.160;2023-09-30T04:36:51;15.55;;;5.85;;
4448;SDS011;2237;51.870;6.160;2023-09-30T04:39:18;13.27;;;5.90;;
4448;SDS011;2237;51.870;6.160;2023-09-30T04:41:44;14.40;;;6.20;;
4448;SDS011;2237;51.870;6.160;2023-09-30T04:44:13;13.95;;;6.10;;
4448;SDS011;2237;51.870;6.160;2023-09-30T04:46:39;19.00;;;5.95;;
4448;SDS011;2237;51.870;6.160;2023-09-30T04:49:15;15.98;;;5.97;;
4448;SDS011;2237;51.870;6.160;2023-09-30T04:51:41;13.43;;;6.07;;
4448;SDS011;2237;51.870;6.160;2023-09-30T04:54:08;15.73;;;6.22;;
4448;SDS011;2237;51.870;6.160;2023-09-30T04:56:35;16.27;;;6.68;;
4448;SDS011;2237;51.870;6.160;2023-09-30T04:59:01;12.95;;;6.18;;
4448;SDS011;2237;51.870;6.160;2023-09-30T05:01:30;11.95;;;5.82;;
4448;SDS011;2237;51.870;6.160;2023-09-30T05:03:56;14.27;;;6.57;;
4448;SDS011;2237;51.870;6.160;2023-09-30T05:06:24;16.33;;;6.88;;
4448;SDS011;2237;51.870;6.160;2023-09-30T05:08:50;19.15;;;7.15;;
4448;SDS011;2237;51.870;6.160;2023-09-30T05:11:17;19.02;;;6.93;;
4448;SDS011;2237;51.870;6.160;2023-09-30T05:13:43;15.50;;;6.63;;
4448;SDS011;2237;51.870;6.160;2023-09-30T05:16:09;15.70;;;6.72;;
4448;SDS011;2237;51.870;6.160;2023-09-30T05:18:36;15.80;;;6.18;;
4448;SDS011;2237;51.870;6.160;2023-09-30T05:21:04;14.68;;;6.70;;
4448;SDS011;2237;51.870;6.160;2023-09-30T05:23:31;12.20;;;6.90;;
4448;SDS011;2237;51.870;6.160;2023-09-30T05:25:58;17.65;;;5.72;;
4448;SDS011;2237;51.870;6.160;2023-09-30T05:28:25;14.13;;;6.43;;
4448;SDS011;2237;51.870;6.160;2023-09-30T05:30:52;16.23;;;5.90;;
4448;SDS011;2237;51.870;6.160;2023-09-30T05:33:19;17.40;;;6.13;;
4448;SDS011;2237;51.870;6.160;2023-09-30T05:35:46;14.50;;;5.32;;
4448;SDS011;2237;51.870;6.160;2023-09-30T05:38:13;15.07;;;5.93;;
4448;SDS011;2237;51.870;6.160;2023-09-30T05:40:39;14.38;;;5.82;;
4448;SDS011;2237;51.870;6.160;2023-09-30T05:43:07;11.23;;;5.60;;
4448;SDS011;2237;51.870;6.160;2023-09-30T05:45:34;17.38;;;6.40;;
4448;SDS011;2237;51.870;6.160;2023-09-30T05:48:03;16.88;;;6.30;;
4448;SDS011;2237;51.870;6.160;2023-09-30T05:50:33;18.45;;;6.55;;
4448;SDS011;2237;51.870;6.160;2023-09-30T05:53:02;18.25;;;6.28;;
4448;SDS011;2237;51.870;6.160;2023-09-30T05:55:31;13.52;;;5.70;;
4448;SDS011;2237;51.870;6.160;2023-09-30T05:57:57;12.48;;;5.68;;
4448;SDS011;2237;51.870;6.160;2023-09-30T06:00:25;13.40;;;5.43;;
4448;SDS011;2237;51.870;6.160;2023-09-30T06:02:57;16.40;;;5.68;;
4448;SDS011;2237;51.870;6.160;2023-09-30T06:05:23;16.67;;;6.10;;
4448;SDS011;2237;51.870;6.160;2023-09-30T06:07:52;13.90;;;5.97;;
4448;SDS011;2237;51.870;6.160;2023-09-30T06:10:20;14.15;;;6.00;;
4448;SDS011;2237;51.870;6.160;2023-09-30T06:12:50;13.30;;;5.38;;
4448;SDS011;2237;51.870;6.160;2023-09-30T06:15:21;15.05;;;6.32;;
4448;SDS011;2237;51.870;6.160;2023-09-30T06:17:52;14.98;;;6.00;;
4448;SDS011;2237;51.870;6.160;2023-09-30T06:20:19;15.85;;;6.05;;
4448;SDS011;2237;51.870;6.160;2023-09-30T06:22:48;14.95;;;6.43;;
4448;SDS011;2237;51.870;6.160;2023-09-30T06:25:16;15.43;;;6.57;;
4448;SDS011;2237;51.870;6.160;2023-09-30T06:27:43;15.98;;;5.93;;
4448;SDS011;2237;51.870;6.160;2023-09-30T06:30:10;15.70;;;6.20;;
4448;SDS011;2237;51.870;6.160;2023-09-30T06:32:38;12.77;;;5.93;;
4448;SDS011;2237;51.870;6.160;2023-09-30T06:35:04;12.60;;;5.65;;
4448;SDS011;2237;51.870;6.160;2023-09-30T06:37:32;13.40;;;5.75;;
4448;SDS011;2237;51.870;6.160;2023-09-30T06:39:59;15.48;;;6.30;;
4448;SDS011;2237;51.870;6.160;2023-09-30T06:42:26;14.90;;;5.95;;
4448;SDS011;2237;51.870;6.160;2023-09-30T06:44:53;15.75;;;6.68;;
4448;SDS011;2237;51.870;6.160;2023-09-30T06:47:19;15.43;;;5.85;;
4448;SDS011;2237;51.870;6.160;2023-09-30T06:49:47;16.20;;;6.03;;
4448;SDS011;2237;51.870;6.160;2023-09-30T06:52:14;13.43;;;5.60;;
4448;SDS011;2237;51.870;6.160;2023-09-30T06:54:40;15.65;;;5.78;;
4448;SDS011;2237;51.870;6.160;2023-09-30T06:57:06;16.95;;;6.55;;
4448;SDS011;2237;51.870;6.160;2023-09-30T06:59:34;18.50;;;5.82;;
4448;SDS011;2237;51.870;6.160;2023-09-30T07:02:00;16.58;;;6.47;;
4448;SDS011;2237;51.870;6.160;2023-09-30T07:04:27;12.85;;;5.85;;
4448;SDS011;2237;51.870;6.160;2023-09-30T07:06:56;10.35;;;5.55;;
4448;SDS011;2237;51.870;6.160;2023-09-30T07:09:22;15.35;;;5.85;;
4448;SDS011;2237;51.870;6.160;2023-09-30T07:11:49;15.57;;;6.22;;
4448;SDS011;2237;51.870;6.160;2023-09-30T07:14:15;11.10;;;6.15;;
4448;SDS011;2237;51.870;6.160;2023-09-30T07:16:42;18.35;;;5.97;;
4448;SDS011;2237;51.870;6.160;2023-09-30T07:19:09;15.82;;;5.63;;
4448;SDS011;2237;51.870;6.160;2023-09-30T07:21:35;14.07;;;5.85;;
4448;SDS011;2237;51.870;6.160;2023-09-30T07:24:04;14.98;;;6.72;;
4448;SDS011;2237;51.870;6.160;2023-09-30T07:26:32;16.10;;;6.13;;
4448;SDS011;2237;51.870;6.160;2023-09-30T07:28:59;14.85;;;6.28;;
4448;SDS011;2237;51.870;6.160;2023-09-30T07:31:25;16.33;;;8.73;;
4448;SDS011;2237;51.870;6.160;2023-09-30T07:33:52;17.67;;;6.57;;
4448;SDS011;2237;51.870;6.160;2023-09-30T07:36:19;17.77;;;6.15;;
4448;SDS011;2237;51.870;6.160;2023-09-30T07:38:45;12.23;;;5.95;;
4448;SDS011;2237;51.870;6.160;2023-09-30T07:41:13;12.25;;;6.05;;
4448;SDS011;2237;51.870;6.160;2023-09-30T07:43:40;17.77;;;6.43;;
4448;SDS011;2237;51.870;6.160;2023-09-30T07:46:06;13.30;;;5.15;;
4448;SDS011;2237;51.870;6.160;2023-09-30T07:48:34;13.98;;;5.95;;
4448;SDS011;2237;51.870;6.160;2023-09-30T07:51:01;14.50;;;6.00;;
4448;SDS011;2237;51.870;6.160;2023-09-30T07:53:28;26.63;;;5.85;;
4448;SDS011;2237;51.870;6.160;2023-09-30T07:55:55;14.32;;;5.15;;
4448;SDS011;2237;51.870;6.160;2023-09-30T07:58:22;12.60;;;5.28;;
4448;SDS011;2237;51.870;6.160;2023-09-30T08:00:48;15.18;;;6.22;;
4448;SDS011;2237;51.870;6.160;2023-09-30T08:03:15;16.73;;;5.88;;
4448;SDS011;2237;51.870;6.160;2023-09-30T08:05:42;15.32;;;5.57;;
4448;SDS011;2237;51.870;6.160;2023-09-30T08:08:08;13.35;;;5.90;;
4448;SDS011;2237;51.870;6.160;2023-09-30T08:10:35;12.65;;;5.65;;
4448;SDS011;2237;51.870;6.160;2023-09-30T08:13:02;12.95;;;5.43;;
4448;SDS011;2237;51.870;6.160;2023-09-30T08:15:29;13.02;;;5.78;;
4448;SDS011;2237;51.870;6.160;2023-09-30T08:17:57;13.52;;;4.68;;
4448;SDS011;2237;51.870;6.160;2023-09-30T08:20:23;15.70;;;5.28;;
4448;SDS011;2237;51.870;6.160;2023-09-30T08:22:50;13.38;;;5.13;;
4448;SDS011;2237;51.870;6.160;2023-09-30T08:25:16;12.63;;;4.70;;
4448;SDS011;2237;51.870;6.160;2023-09-30T08:27:42;12.98;;;4.32;;
4448;SDS011;2237;51.870;6.160;2023-09-30T08:30:11;13.05;;;5.07;;
4448;SDS011;2237;51.870;6.160;2023-09-30T08:32:38;15.25;;;5.45;;
4448;SDS011;2237;51.870;6.160;2023-09-30T08:35:04;11.70;;;5.10;;
4448;SDS011;2237;51.870;6.160;2023-09-30T08:37:31;14.52;;;4.82;;
4448;SDS011;2237;51.870;6.160;2023-09-30T08:39:58;20.63;;;5.60;;
4448;SDS011;2237;51.870;6.160;2023-09-30T08:42:26;13.07;;;4.88;;
4448;SDS011;2237;51.870;6.160;2023-09-30T08:44:59;14.77;;;5.18;;
4448;SDS011;2237;51.870;6.160;2023-09-30T08:47:26;15.70;;;5.93;;
4448;SDS011;2237;51.870;6.160;2023-09-30T08:49:54;15.55;;;5.32;;
4448;SDS011;2237;51.870;6.160;2023-09-30T08:52:32;14.05;;;5.75;;
4448;SDS011;2237;51.870;6.160;2023-09-30T08:55:04;13.45;;;5.40;;
4448;SDS011;2237;51.870;6.160;2023-09-30T08:57:32;15.00;;;5.72;;
4448;SDS011;2237;51.870;6.160;2023-09-30T09:00:02;17.03;;;5.77;;
4448;SDS011;2237;51.870;6.160;2023-09-30T09:02:35;14.75;;;5.18;;
4448;SDS011;2237;51.870;6.160;2023-09-30T09:05:02;16.80;;;6.07;;
4448;SDS011;2237;51.870;6.160;2023-09-30T09:07:29;12.10;;;4.85;;
4448;SDS011;2237;51.870;6.160;2023-09-30T09:10:06;12.77;;;5.07;;
4448;SDS011;2237;51.870;6.160;2023-09-30T09:12:35;17.05;;;4.68;;
4448;SDS011;2237;51.870;6.160;2023-09-30T09:15:03;17.25;;;5.70;;
4448;SDS011;2237;51.870;6.160;2023-09-30T09:17:45;10.85;;;4.90;;
4448;SDS011;2237;51.870;6.160;2023-09-30T09:20:16;20.40;;;4.95;;
4448;SDS011;2237;51.870;6.160;2023-09-30T09:22:47;11.90;;;5.25;;
4448;SDS011;2237;51.870;6.160;2023-09-30T09:25:17;11.97;;;4.47;;
4448;SDS011;2237;51.870;6.160;2023-09-30T09:27:43;13.38;;;4.22;;
4448;SDS011;2237;51.870;6.160;2023-09-30T09:30:23;13.30;;;4.38;;
4448;SDS011;2237;51.870;6.160;2023-09-30T09:32:54;13.10;;;3.80;;
4448;SDS011;2237;51.870;6.160;2023-09-30T09:35:24;11.02;;;3.85;;
4448;SDS011;2237;51.870;6.160;2023-09-30T09:37:59;11.00;;;3.90;;
4448;SDS011;2237;51.870;6.160;2023-09-30T09:40:33;9.70;;;3.75;;
4448;SDS011;2237;51.870;6.160;2023-09-30T09:43:00;10.38;;;4.13;;
4448;SDS011;2237;51.870;6.160;2023-09-30T09:45:34;14.93;;;4.72;;
4448;SDS011;2237;51.870;6.160;2023-09-30T09:48:03;10.15;;;4.22;;
4448;SDS011;2237;51.870;6.160;2023-09-30T09:50:31;12.90;;;4.10;;
4448;SDS011;2237;51.870;6.160;2023-09-30T09:52:58;14.10;;;4.85;;
4448;SDS011;2237;51.870;6.160;2023-09-30T09:55:26;17.67;;;4.22;;
4448;SDS011;2237;51.870;6.160;2023-09-30T09:57:53;16.10;;;4.53;;
4448;SDS011;2237;51.870;6.160;2023-09-30T10:00:22;13.38;;;4.15;;
4448;SDS011;2237;51.870;6.160;2023-09-30T10:02:50;12.25;;;4.10;;
4448;SDS011;2237;51.870;6.160;2023-09-30T10:05:18;10.85;;;3.67;;
4448;SDS011;2237;51.870;6.160;2023-09-30T10:07:49;10.60;;;4.05;;
4448;SDS011;2237;51.870;6.160;2023-09-30T10:10:20;10.32;;;3.78;;
4448;SDS011;2237;51.870;6.160;2023-09-30T10:12:48;16.10;;;3.95;;
4448;SDS011;2237;51.870;6.160;2023-09-30T10:18:00;11.77;;;3.65;;
4448;SDS011;2237;51.870;6.160;2023-09-30T10:20:36;9.88;;;3.55;;
4448;SDS011;2237;51.870;6.160;2023-09-30T10:23:22;6.85;;;2.92;;
4448;SDS011;2237;51.870;6.160;2023-09-30T10:38:56;10.85;;;3.65;;
4448;SDS011;2237;51.870;6.160;2023-09-30T10:46:54;9.55;;;3.30;;
4448;SDS011;2237;51.870;6.160;2023-09-30T10:51:51;10.02;;;3.15;;
4448;SDS011;2237;51.870;6.160;2023-09-30T10:54:22;12.52;;;3.88;;
4448;SDS011;2237;51.870;6.160;2023-09-30T10:56:49;9.23;;;3.50;;
4448;SDS011;2237;51.870;6.160;2023-09-30T10:59:19;8.50;;;2.90;;
4448;SDS011;2237;51.870;6.160;2023-09-30T11:01:46;7.50;;;2.78;;
4448;SDS011;2237;51.870;6.160;2023-09-30T11:04:13;6.68;;;2.90;;
4448;SDS011;2237;51.870;6.160;2023-09-30T11:06:40;10.88;;;2.97;;
4448;SDS011;2237;51.870;6.160;2023-09-30T11:09:08;9.55;;;2.63;;
4448;SDS011;2237;51.870;6.160;2023-09-30T11:11:40;14.80;;;3.22;;
4448;SDS011;2237;51.870;6.160;2023-09-30T11:16:56;10.00;;;3.25;;
4448;SDS011;2237;51.870;6.160;2023-09-30T11:19:25;9.10;;;3.13;;
4448;SDS011;2237;51.870;6.160;2023-09-30T11:21:54;10.52;;;2.80;;
4448;SDS011;2237;51.870;6.160;2023-09-30T11:24:21;9.07;;;2.90;;
4448;SDS011;2237;51.870;6.160;2023-09-30T11:26:50;6.05;;;2.08;;
4448;SDS011;2237;51.870;6.160;2023-09-30T11:31:47;9.70;;;1.80;;
4448;SDS011;2237;51.870;6.160;2023-09-30T11:34:17;5.23;;;2.00;;
4448;SDS011;2237;51.870;6.160;2023-09-30T11:36:49;7.00;;;2.13;;
4448;SDS011;2237;51.870;6.160;2023-09-30T11:39:27;11.73;;;2.17;;
4448;SDS011;2237;51.870;6.160;2023-09-30T11:41:55;6.55;;;1.85;;
4448;SDS011;2237;51.870;6.160;2023-09-30T11:44:24;10.30;;;2.95;;
4448;SDS011;2237;51.870;6.160;2023-09-30T11:49:28;4.35;;;1.77;;
4448;SDS011;2237;51.870;6.160;2023-09-30T11:51:55;8.93;;;1.70;;
4448;SDS011;2237;51.870;6.160;2023-09-30T11:57:13;10.70;;;1.65;;
4448;SDS011;2237;51.870;6.160;2023-09-30T11:59:45;4.40;;;1.45;;
4448;SDS011;2237;51.870;6.160;2023-09-30T12:02:12;6.07;;;1.48;;
4448;SDS011;2237;51.870;6.160;2023-09-30T12:04:42;5.65;;;1.40;;
4448;SDS011;2237;51.870;6.160;2023-09-30T12:07:10;4.97;;;1.63;;
4448;SDS011;2237;51.870;6.160;2023-09-30T12:09:37;2.97;;;1.33;;
4448;SDS011;2237;51.870;6.160;2023-09-30T12:12:05;9.95;;;1.60;;
4448;SDS011;2237;51.870;6.160;2023-09-30T12:14:36;5.60;;;1.98;;
4448;SDS011;2237;51.870;6.160;2023-09-30T12:17:02;9.55;;;2.05;;
4448;SDS011;2237;51.870;6.160;2023-09-30T12:19:29;9.52;;;1.98;;
4448;SDS011;2237;51.870;6.160;2023-09-30T12:21:55;12.48;;;2.38;;
4448;SDS011;2237;51.870;6.160;2023-09-30T12:24:22;8.70;;;1.60;;
4448;SDS011;2237;51.870;6.160;2023-09-30T12:26:50;9.77;;;1.60;;
4448;SDS011;2237;51.870;6.160;2023-09-30T12:29:19;4.63;;;1.40;;
4448;SDS011;2237;51.870;6.160;2023-09-30T12:31:49;5.60;;;2.05;;
4448;SDS011;2237;51.870;6.160;2023-09-30T12:34:21;9.38;;;1.80;;
4448;SDS011;2237;51.870;6.160;2023-09-30T12:36:52;4.72;;;1.40;;
4448;SDS011;2237;51.870;6.160;2023-09-30T12:39:19;7.60;;;1.83;;
4448;SDS011;2237;51.870;6.160;2023-09-30T12:41:51;10.77;;;4.07;;
4448;SDS011;2237;51.870;6.160;2023-09-30T12:44:18;6.25;;;2.47;;
4448;SDS011;2237;51.870;6.160;2023-09-30T12:46:45;10.15;;;2.25;;
4448;SDS011;2237;51.870;6.160;2023-09-30T12:49:12;6.00;;;1.48;;
4448;SDS011;2237;51.870;6.160;2023-09-30T12:51:38;5.63;;;1.55;;
4448;SDS011;2237;51.870;6.160;2023-09-30T12:54:05;6.72;;;1.80;;
4448;SDS011;2237;51.870;6.160;2023-09-30T12:56:31;5.65;;;1.52;;
4448;SDS011;2237;51.870;6.160;2023-09-30T12:58:59;4.53;;;1.45;;
4448;SDS011;2237;51.870;6.160;2023-09-30T13:01:26;4.20;;;1.42;;
4448;SDS011;2237;51.870;6.160;2023-09-30T13:03:55;6.40;;;1.48;;
4448;SDS011;2237;51.870;6.160;2023-09-30T13:06:22;4.50;;;1.70;;
4448;SDS011;2237;51.870;6.160;2023-09-30T13:08:48;5.05;;;1.40;;
4448;SDS011;2237;51.870;6.160;2023-09-30T13:11:15;6.28;;;1.85;;
4448;SDS011;2237;51.870;6.160;2023-09-30T13:13:41;5.28;;;1.70;;
4448;SDS011;2237;51.870;6.160;2023-09-30T13:16:10;6.93;;;1.70;;
4448;SDS011;2237;51.870;6.160;2023-09-30T13:18:37;7.88;;;2.05;;
4448;SDS011;2237;51.870;6.160;2023-09-30T13:21:04;5.20;;;1.60;;
4448;SDS011;2237;51.870;6.160;2023-09-30T13:23:32;12.48;;;1.92;;
4448;SDS011;2237;51.870;6.160;2023-09-30T13:25:59;7.25;;;2.00;;
4448;SDS011;2237;51.870;6.160;2023-09-30T13:28:26;9.23;;;1.70;;
4448;SDS011;2237;51.870;6.160;2023-09-30T13:30:54;7.25;;;2.10;;
4448;SDS011;2237;51.870;6.160;2023-09-30T13:33:20;14.00;;;2.70;;
4448;SDS011;2237;51.870;6.160;2023-09-30T13:35:47;9.00;;;2.30;;
4448;SDS011;2237;51.870;6.160;2023-09-30T13:38:13;8.90;;;2.58;;
4448;SDS011;2237;51.870;6.160;2023-09-30T13:40:40;7.82;;;2.33;;
4448;SDS011;2237;51.870;6.160;2023-09-30T13:43:06;4.65;;;1.75;;
4448;SDS011;2237;51.870;6.160;2023-09-30T13:45:33;5.40;;;1.73;;
4448;SDS011;2237;51.870;6.160;2023-09-30T13:48:00;5.32;;;1.70;;
4448;SDS011;2237;51.870;6.160;2023-09-30T13:50:27;6.95;;;1.60;;
4448;SDS011;2237;51.870;6.160;2023-09-30T13:52:53;8.63;;;1.98;;
4448;SDS011;2237;51.870;6.160;2023-09-30T13:55:20;5.20;;;2.22;;
4448;SDS011;2237;51.870;6.160;2023-09-30T13:57:46;5.80;;;1.60;;
4448;SDS011;2237;51.870;6.160;2023-09-30T14:00:13;9.02;;;2.03;;
4448;SDS011;2237;51.870;6.160;2023-09-30T14:02:40;6.32;;;2.08;;
4448;SDS011;2237;51.870;6.160;2023-09-30T14:05:07;5.68;;;1.85;;
4448;SDS011;2237;51.870;6.160;2023-09-30T14:07:34;6.32;;;2.15;;
4448;SDS011;2237;51.870;6.160;2023-09-30T14:10:02;13.00;;;2.30;;
4448;SDS011;2237;51.870;6.160;2023-09-30T14:12:30;9.30;;;2.10;;
4448;SDS011;2237;51.870;6.160;2023-09-30T14:14:57;7.22;;;2.05;;
4448;SDS011;2237;51.870;6.160;2023-09-30T14:17:24;5.55;;;1.85;;
4448;SDS011;2237;51.870;6.160;2023-09-30T14:19:56;9.57;;;2.35;;
4448;SDS011;2237;51.870;6.160;2023-09-30T14:22:22;6.60;;;2.30;;
4448;SDS011;2237;51.870;6.160;2023-09-30T14:24:48;6.30;;;2.35;;
4448;SDS011;2237;51.870;6.160;2023-09-30T14:27:15;7.78;;;2.10;;
4448;SDS011;2237;51.870;6.160;2023-09-30T14:29:41;7.68;;;2.30;;
4448;SDS011;2237;51.870;6.160;2023-09-30T14:32:09;5.50;;;1.90;;
4448;SDS011;2237;51.870;6.160;2023-09-30T14:34:36;6.25;;;1.88;;
4448;SDS011;2237;51.870;6.160;2023-09-30T14:37:02;7.18;;;2.00;;
4448;SDS011;2237;51.870;6.160;2023-09-30T14:39:29;6.40;;;1.90;;
4448;SDS011;2237;51.870;6.160;2023-09-30T14:41:55;8.32;;;2.10;;
4448;SDS011;2237;51.870;6.160;2023-09-30T14:44:22;6.88;;;2.05;;
4448;SDS011;2237;51.870;6.160;2023-09-30T14:46:50;5.28;;;1.92;;
4448;SDS011;2237;51.870;6.160;2023-09-30T14:49:16;6.45;;;1.92;;
4448;SDS011;2237;51.870;6.160;2023-09-30T14:51:43;5.10;;;2.33;;
4448;SDS011;2237;51.870;6.160;2023-09-30T14:54:10;6.97;;;2.08;;
4448;SDS011;2237;51.870;6.160;2023-09-30T14:56:36;10.15;;;1.85;;
4448;SDS011;2237;51.870;6.160;2023-09-30T14:59:03;7.32;;;2.30;;
4448;SDS011;2237;51.870;6.160;2023-09-30T15:01:31;4.95;;;2.00;;
4448;SDS011;2237;51.870;6.160;2023-09-30T15:03:59;5.93;;;2.17;;
4448;SDS011;2237;51.870;6.160;2023-09-30T15:06:26;7.07;;;2.38;;
4448;SDS011;2237;51.870;6.160;2023-09-30T15:08:54;10.45;;;2.75;;
4448;SDS011;2237;51.870;6.160;2023-09-30T15:11:21;7.65;;;2.10;;
4448;SDS011;2237;51.870;6.160;2023-09-30T15:13:49;6.70;;;2.05;;
4448;SDS011;2237;51.870;6.160;2023-09-30T15:16:17;5.60;;;1.90;;
4448;SDS011;2237;51.870;6.160;2023-09-30T15:18:46;6.25;;;2.08;;
4448;SDS011;2237;51.870;6.160;2023-09-30T15:21:13;8.57;;;1.65;;
4448;SDS011;2237;51.870;6.160;2023-09-30T15:23:41;6.57;;;2.35;;
4448;SDS011;2237;51.870;6.160;2023-09-30T15:26:08;5.93;;;2.00;;
4448;SDS011;2237;51.870;6.160;2023-09-30T15:28:36;9.45;;;2.30;;
4448;SDS011;2237;51.870;6.160;2023-09-30T15:31:03;9.00;;;2.33;;
4448;SDS011;2237;51.870;6.160;2023-09-30T15:33:30;9.38;;;2.13;;
4448;SDS011;2237;51.870;6.160;2023-09-30T15:35:57;9.90;;;2.60;;
4448;SDS011;2237;51.870;6.160;2023-09-30T15:38:23;8.00;;;2.10;;
4448;SDS011;2237;51.870;6.160;2023-09-30T15:43:16;6.97;;;1.95;;
4448;SDS011;2237;51.870;6.160;2023-09-30T15:45:43;9.45;;;2.10;;